Time;durP1;ratioP1;P1;durP2;ratioP2;P2;SDS_P1;SDS_P2;PMS_P1;PMS_P2;Temp;Humidity;BMP_temperature;BMP_pressure;BME280_temperature;BME280_humidity;BME280_pressure;Samples;Min_cycle;Max_cycle;Signal;HPM_P1;HPM_P2
2023/09/27 04:30:54;;;;;;;0.10;0.10;;;16.90;84.60;;;;;;5614869;23;20135;-78
2023/09/27 04:33:21;;;;;;;0.10;0.10;;;16.80;84.90;;;;;;4897971;29;20028;-78
2023/09/27 04:35:47;;;;;;;0.00;0.00;;;16.70;85.40;;;;;;4901075;29;20043;-78
2023/09/27 04:38:14;;;;;;;0.10;0.10;;;16.80;85.40;;;;;;4884093;29;20029;-78
2023/09/27 04:40:40;;;;;;;0.10;0.10;;;16.80;85.10;;;;;;4885289;29;20021;-78
2023/09/27 04:43:05;;;;;;;0.10;0.10;;;16.80;85.00;;;;;;4884255;29;20027;-78
2023/09/27 04:45:31;;;;;;;0.10;0.10;;;16.80;85.20;;;;;;4883133;29;20385;-78
2023/09/27 04:47:57;;;;;;;0.10;0.10;;;16.80;85.30;;;;;;4867124;29;20072;-77
2023/09/27 04:50:22;;;;;;;0.10;0.10;;;16.80;85.20;;;;;;4900210;29;20036;-76
2023/09/27 04:52:48;;;;;;;0.10;0.10;;;16.80;85.30;;;;;;4902750;29;20033;-76
2023/09/27 04:55:15;;;;;;;0.10;0.10;;;16.80;85.30;;;;;;4916630;29;20065;-76
2023/09/27 04:57:40;;;;;;;0.10;0.10;;;16.80;85.10;;;;;;4884286;29;20037;-76
2023/09/27 05:00:13;;;;;;;0.10;0.10;;;16.70;85.10;;;;;;4884114;29;20036;-74
2023/09/27 05:02:39;;;;;;;0.10;0.10;;;16.70;85.20;;;;;;4886240;29;20017;-75
2023/09/27 05:05:07;;;;;;;0.10;0.10;;;16.70;85.30;;;;;;4884184;29;20037;-74
2023/09/27 05:07:33;;;;;;;0.10;0.10;;;16.60;85.20;;;;;;4898017;29;20037;-76
2023/09/27 05:09:59;;;;;;;0.10;0.10;;;16.70;85.10;;;;;;4902614;29;20028;-76
2023/09/27 05:12:24;;;;;;;0.10;0.10;;;16.60;85.00;;;;;;4895097;29;20043;-76
2023/09/27 05:14:50;;;;;;;0.10;0.10;;;16.60;85.00;;;;;;4883909;29;20519;-76
2023/09/27 05:17:16;;;;;;;0.10;0.10;;;16.70;84.80;;;;;;4883494;29;20025;-75
2023/09/27 05:19:41;;;;;;;0.10;0.10;;;16.70;84.70;;;;;;4866198;29;20143;-77
2023/09/27 05:22:07;;;;;;;0.10;0.10;;;16.70;84.40;;;;;;4882344;29;20052;-77
2023/09/27 05:24:38;;;;;;;0.10;0.10;;;16.60;84.40;;;;;;4899502;29;20391;-76
2023/09/27 05:27:07;;;;;;;0.10;0.10;;;16.70;84.60;;;;;;4901064;29;20147;-75
2023/09/27 05:29:33;;;;;;;0.00;0.00;;;16.70;84.50;;;;;;4886953;29;20088;-74
2023/09/27 05:31:59;;;;;;;0.10;0.10;;;16.60;84.40;;;;;;4901308;29;20061;-75
2023/09/27 05:34:25;;;;;;;0.10;0.10;;;16.60;84.30;;;;;;4894022;29;20036;-75
2023/09/27 05:36:50;;;;;;;0.10;0.10;;;16.60;84.30;;;;;;4901210;29;20033;-75
2023/09/27 05:39:16;;;;;;;0.08;0.08;;;16.50;84.10;;;;;;4891554;29;20049;-75
2023/09/27 05:41:42;;;;;;;0.10;0.10;;;16.40;84.50;;;;;;4889438;29;20460;-75
2023/09/27 05:44:07;;;;;;;0.10;0.10;;;16.30;84.60;;;;;;4884194;29;20115;-79
2023/09/27 05:46:33;;;;;;;0.20;0.20;;;16.20;84.90;;;;;;4901519;29;20036;-75
2023/09/27 05:49:04;;;;;;;0.10;0.10;;;16.20;85.10;;;;;;4883164;29;20641;-76
2023/09/27 05:51:31;;;;;;;0.10;0.10;;;16.20;84.90;;;;;;4866412;29;20029;-77
2023/09/27 05:53:59;;;;;;;0.10;0.10;;;16.20;84.80;;;;;;4866346;29;20037;-76
2023/09/27 05:56:25;;;;;;;0.10;0.10;;;16.20;84.80;;;;;;4882879;29;20085;-76
2023/09/27 05:58:51;;;;;;;0.10;0.10;;;16.20;84.90;;;;;;4881750;29;20037;-76
2023/09/27 06:01:19;;;;;;;0.10;0.10;;;16.20;84.90;;;;;;4866274;29;20025;-76
2023/09/27 06:03:48;;;;;;;0.10;0.10;;;16.20;85.00;;;;;;4891334;29;20064;-76
2023/09/27 06:06:14;;;;;;;0.10;0.10;;;16.20;84.80;;;;;;4880223;29;20037;-76
2023/09/27 06:08:40;;;;;;;0.10;0.10;;;16.20;84.70;;;;;;4888051;29;20120;-75
2023/09/27 06:11:07;;;;;;;0.10;0.10;;;16.20;84.60;;;;;;4895994;29;20160;-76
2023/09/27 06:13:33;;;;;;;0.15;0.10;;;16.20;84.60;;;;;;4866119;29;20508;-75
2023/09/27 06:16:00;;;;;;;0.10;0.10;;;16.30;84.40;;;;;;4872376;29;20059;-76
2023/09/27 06:18:26;;;;;;;0.10;0.10;;;16.10;84.70;;;;;;4889147;29;20033;-76
2023/09/27 06:20:55;;;;;;;0.08;0.08;;;16.10;84.60;;;;;;4885871;29;20029;-76
2023/09/27 06:23:20;;;;;;;0.10;0.10;;;16.10;84.60;;;;;;4879989;29;20040;-76
2023/09/27 06:25:46;;;;;;;0.10;0.10;;;16.00;84.60;;;;;;4895856;29;20441;-76
2023/09/27 06:28:13;;;;;;;0.10;0.10;;;16.00;84.80;;;;;;4882408;29;20033;-76
2023/09/27 06:30:42;;;;;;;0.10;0.10;;;16.10;84.90;;;;;;4882004;29;20528;-76
2023/09/27 06:33:09;;;;;;;0.10;0.10;;;16.10;84.70;;;;;;4885771;29;20044;-76
2023/09/27 06:35:38;;;;;;;0.10;0.10;;;16.20;84.50;;;;;;4881233;29;20036;-76
2023/09/27 06:38:05;;;;;;;0.10;0.10;;;16.30;84.40;;;;;;4893856;29;20025;-76
2023/09/27 06:40:35;;;;;;;0.10;0.10;;;16.20;84.30;;;;;;4894980;29;20120;-75
2023/09/27 06:43:01;;;;;;;0.10;0.10;;;16.20;84.40;;;;;;4881801;29;20045;-75
2023/09/27 06:45:27;;;;;;;0.10;0.10;;;16.20;84.50;;;;;;4891965;29;20112;-75
2023/09/27 06:47:54;;;;;;;0.10;0.10;;;16.30;84.40;;;;;;4881105;29;20442;-75
2023/09/27 06:50:20;;;;;;;0.10;0.10;;;16.30;84.40;;;;;;4881424;29;20033;-75
2023/09/27 06:52:46;;;;;;;0.10;0.10;;;16.30;84.40;;;;;;4894380;29;20044;-75
2023/09/27 06:55:16;;;;;;;0.10;0.10;;;16.30;84.50;;;;;;4900559;29;20432;-75
2023/09/27 06:57:44;;;;;;;0.10;0.10;;;16.30;84.40;;;;;;4880076;29;20033;-75
2023/09/27 07:00:24;;;;;;;0.10;0.10;;;16.30;84.30;;;;;;4864382;29;20117;-75
2023/09/27 07:02:53;;;;;;;0.10;0.10;;;16.30;84.40;;;;;;4879908;29;20029;-75
2023/09/27 07:05:22;;;;;;;0.22;0.10;;;16.30;84.40;;;;;;4878836;29;20634;-75
2023/09/27 07:07:53;;;;;;;0.10;0.10;;;16.30;84.50;;;;;;4882574;29;20412;-74
2023/09/27 07:10:19;;;;;;;0.10;0.10;;;16.40;84.50;;;;;;4893718;29;20067;-75
2023/09/27 07:12:46;;;;;;;0.10;0.10;;;16.40;84.20;;;;;;4872961;29;20064;-75
2023/09/27 07:15:13;;;;;;;0.20;0.20;;;16.50;84.30;;;;;;4876744;29;20059;-74
2023/09/27 07:17:43;;;;;;;0.10;0.10;;;16.50;84.10;;;;;;4894172;29;20024;-75
2023/09/27 07:20:32;;;;;;;0.10;0.10;;;16.60;84.10;;;;;;4894034;29;20080;-75
2023/09/27 07:22:59;;;;;;;0.10;0.10;;;16.70;83.90;;;;;;4912978;29;20028;-75
2023/09/27 07:25:25;;;;;;;0.10;0.10;;;16.70;83.90;;;;;;4904334;29;20033;-75
2023/09/27 07:27:53;;;;;;;0.10;0.10;;;16.70;84.10;;;;;;4905728;29;20432;-74
2023/09/27 07:30:23;;;;;;;0.10;0.10;;;16.80;83.80;;;;;;4886769;29;20039;-75
2023/09/27 07:32:56;;;;;;;0.10;0.10;;;16.90;83.70;;;;;;4865747;29;20140;-76
2023/09/27 07:35:24;;;;;;;0.20;0.20;;;17.00;83.10;;;;;;4883912;29;20109;-77
2023/09/27 07:37:49;;;;;;;0.10;0.10;;;17.30;83.00;;;;;;4883678;29;20029;-76
2023/09/27 07:40:17;;;;;;;0.10;0.10;;;17.40;82.40;;;;;;4887331;29;20032;-76
2023/09/27 07:42:44;;;;;;;0.10;0.10;;;17.40;82.00;;;;;;4888806;29;20021;-75
2023/09/27 07:45:32;;;;;;;0.10;0.10;;;17.30;82.30;;;;;;4885208;29;20033;-76
2023/09/27 07:47:58;;;;;;;0.10;0.10;;;17.30;82.40;;;;;;4868009;29;20033;-76
2023/09/27 07:50:31;;;;;;;0.10;0.10;;;17.20;82.60;;;;;;4884439;29;20817;-76
2023/09/27 07:52:57;;;;;;;0.10;0.10;;;17.20;82.60;;;;;;4885090;29;20104;-76
2023/09/27 07:55:23;;;;;;;0.10;0.10;;;17.20;82.70;;;;;;4884927;29;20033;-76
2023/09/27 07:57:52;;;;;;;0.10;0.10;;;17.20;82.60;;;;;;4885202;29;20041;-75
2023/09/27 08:00:19;;;;;;;0.10;0.10;;;17.20;82.80;;;;;;4877129;29;20044;-76
2023/09/27 08:02:50;;;;;;;0.10;0.10;;;17.30;82.60;;;;;;4889939;29;20025;-75
2023/09/27 08:05:16;;;;;;;0.00;0.00;;;17.40;82.60;;;;;;4886367;29;20022;-75
2023/09/27 08:07:46;;;;;;;0.03;0.03;;;17.50;82.50;;;;;;4889941;29;20572;-76
2023/09/27 08:10:12;;;;;;;0.10;0.10;;;17.60;82.20;;;;;;4883987;29;20124;-75
2023/09/27 08:12:39;;;;;;;0.10;0.10;;;17.60;82.00;;;;;;4867304;29;20064;-76
2023/09/27 08:15:05;;;;;;;0.10;0.10;;;17.50;82.00;;;;;;4867437;29;20033;-76
2023/09/27 08:17:32;;;;;;;0.10;0.10;;;17.60;81.70;;;;;;4884571;29;20029;-76
2023/09/27 08:19:59;;;;;;;0.10;0.10;;;17.60;82.10;;;;;;4875753;29;20563;-76
2023/09/27 08:22:25;;;;;;;0.03;0.03;;;17.70;82.00;;;;;;4867819;29;20369;-76
2023/09/27 08:24:50;;;;;;;0.10;0.10;;;17.80;81.90;;;;;;4893381;29;20063;-76
2023/09/27 08:27:17;;;;;;;0.00;0.00;;;17.80;81.00;;;;;;4886224;29;20037;-76
2023/09/27 08:29:42;;;;;;;0.10;0.10;;;17.90;81.30;;;;;;4888058;29;20076;-76
2023/09/27 08:32:08;;;;;;;0.10;0.10;;;18.00;80.80;;;;;;4883911;29;20456;-76
2023/09/27 08:34:35;;;;;;;0.10;0.10;;;18.10;80.80;;;;;;4882412;29;20415;-76
2023/09/27 08:37:01;;;;;;;0.10;0.10;;;18.30;80.60;;;;;;4881152;29;20036;-76
2023/09/27 08:39:27;;;;;;;0.10;0.10;;;18.30;79.70;;;;;;4880901;29;20041;-76
2023/09/27 08:41:56;;;;;;;0.10;0.10;;;18.50;79.90;;;;;;4889922;29;20408;-76
2023/09/27 08:44:25;;;;;;;0.10;0.10;;;18.80;79.70;;;;;;4868906;29;20033;-76
2023/09/27 08:46:54;;;;;;;0.10;0.10;;;18.80;78.40;;;;;;4866937;29;20025;-76
2023/09/27 08:49:20;;;;;;;0.00;0.00;;;18.80;78.30;;;;;;4870261;29;20048;-76
2023/09/27 08:51:48;;;;;;;0.10;0.10;;;18.70;78.40;;;;;;4884145;29;20036;-76
2023/09/27 08:54:19;;;;;;;0.08;0.08;;;18.80;79.00;;;;;;4882845;29;20373;-76
2023/09/27 08:56:49;;;;;;;0.10;0.10;;;18.80;78.30;;;;;;4884051;29;20032;-76
2023/09/27 08:59:18;;;;;;;0.10;0.10;;;18.90;78.40;;;;;;4873180;29;20040;-76
2023/09/27 09:01:44;;;;;;;0.08;0.08;;;18.90;78.60;;;;;;4902158;29;20088;-76
2023/09/27 09:04:11;;;;;;;0.00;0.00;;;18.90;78.70;;;;;;4897406;29;20056;-76
2023/09/27 09:06:37;;;;;;;0.10;0.10;;;18.90;78.70;;;;;;4902476;29;20035;-76
2023/09/27 09:09:12;;;;;;;0.10;0.10;;;18.90;78.60;;;;;;4895865;29;20584;-76
2023/09/27 09:11:56;;;;;;;0.10;0.10;;;18.90;78.50;;;;;;4868997;29;20055;-76
2023/09/27 09:14:37;;;;;;;0.10;0.10;;;19.00;78.30;;;;;;4883526;29;20041;-76
2023/09/27 09:17:02;;;;;;;0.10;0.10;;;19.10;78.50;;;;;;4882836;29;20029;-76
2023/09/27 09:19:31;;;;;;;0.00;0.00;;;19.20;78.40;;;;;;4883232;29;20041;-76
2023/09/27 09:22:08;;;;;;;0.10;0.10;;;19.30;78.00;;;;;;4866183;29;20049;-76
2023/09/27 09:24:43;;;;;;;0.10;0.10;;;19.40;77.70;;;;;;4869587;29;20084;-76
2023/09/27 09:27:14;;;;;;;0.10;0.10;;;19.60;77.70;;;;;;4883664;29;20025;-76
2023/09/27 09:29:43;;;;;;;0.10;0.10;;;19.70;77.30;;;;;;4868240;29;20040;-76
2023/09/27 09:32:09;;;;;;;0.10;0.10;;;19.80;77.10;;;;;;4878531;29;20125;-76
2023/09/27 09:34:45;;;;;;;0.10;0.10;;;19.80;76.50;;;;;;4897143;29;20036;-76
2023/09/27 09:37:22;;;;;;;0.10;0.10;;;19.80;76.40;;;;;;4892810;29;20037;-76
2023/09/27 09:39:52;;;;;;;0.10;0.10;;;19.80;76.30;;;;;;4885202;29;20033;-76
2023/09/27 09:42:34;;;;;;;0.10;0.10;;;20.00;76.30;;;;;;4888081;29;20028;-76
2023/09/27 09:45:08;;;;;;;0.05;0.05;;;20.10;76.00;;;;;;4882002;29;20033;-76
2023/09/27 09:47:37;;;;;;;0.10;0.10;;;20.10;75.60;;;;;;4888164;29;20029;-76
2023/09/27 09:50:16;;;;;;;0.10;0.10;;;20.10;75.20;;;;;;4882841;29;20029;-76
2023/09/27 09:52:48;;;;;;;0.10;0.10;;;20.20;75.40;;;;;;4881686;29;20025;-76
2023/09/27 09:55:19;;;;;;;0.00;0.00;;;20.20;75.40;;;;;;4881714;29;20037;-76
2023/09/27 09:57:47;;;;;;;0.10;0.10;;;20.30;75.40;;;;;;4897724;29;20326;-76
2023/09/27 10:00:30;;;;;;;0.00;0.00;;;20.20;75.00;;;;;;4882036;29;20025;-76
2023/09/27 10:03:04;;;;;;;0.10;0.10;;;20.20;75.50;;;;;;4891367;29;20525;-76
2023/09/27 10:05:38;;;;;;;0.10;0.10;;;20.20;75.00;;;;;;4901175;29;20056;-75
2023/09/27 10:08:04;;;;;;;0.00;0.00;;;20.10;75.20;;;;;;4884637;29;20400;-76
2023/09/27 10:10:30;;;;;;;0.03;0.03;;;20.10;75.00;;;;;;4882383;29;20045;-76
2023/09/27 10:12:58;;;;;;;0.10;0.10;;;20.20;74.90;;;;;;4881607;29;20025;-76
2023/09/27 10:15:24;;;;;;;0.10;0.10;;;20.20;75.20;;;;;;4882402;29;20040;-76
2023/09/27 10:17:50;;;;;;;0.10;0.10;;;20.20;74.80;;;;;;4891372;29;20100;-76
2023/09/27 10:20:20;;;;;;;0.10;0.10;;;20.30;74.80;;;;;;4888787;29;20060;-76
2023/09/27 10:22:47;;;;;;;0.10;0.10;;;20.40;74.40;;;;;;4881290;29;20033;-76
2023/09/27 10:25:28;;;;;;;0.10;0.10;;;20.40;74.30;;;;;;4890713;29;20033;-76
2023/09/27 10:28:06;;;;;;;0.00;0.00;;;20.60;74.50;;;;;;4884065;29;20033;-75
2023/09/27 10:30:41;;;;;;;0.05;0.05;;;20.70;74.30;;;;;;4882431;29;20057;-76
2023/09/27 10:33:20;;;;;;;0.10;0.10;;;20.80;74.40;;;;;;4885237;29;20044;-76
2023/09/27 10:36:07;;;;;;;0.10;0.10;;;20.80;74.00;;;;;;4901048;29;20025;-76
2023/09/27 10:38:42;;;;;;;0.10;0.10;;;20.80;74.20;;;;;;4884452;29;20035;-76
2023/09/27 10:41:28;;;;;;;0.10;0.10;;;21.00;73.80;;;;;;4887380;29;20032;-76
2023/09/27 10:43:54;;;;;;;0.00;0.00;;;21.00;73.40;;;;;;4869020;29;20128;-76
2023/09/27 10:46:20;;;;;;;0.00;0.00;;;21.10;73.10;;;;;;4865314;29;20089;-76
2023/09/27 10:48:55;;;;;;;0.00;0.00;;;21.00;72.70;;;;;;4879922;29;20032;-77
2023/09/27 10:51:22;;;;;;;0.10;0.10;;;20.90;72.60;;;;;;4865670;29;20036;-76
2023/09/27 10:53:49;;;;;;;0.10;0.10;;;20.90;73.10;;;;;;4881399;29;20033;-76
2023/09/27 10:56:15;;;;;;;0.00;0.00;;;20.80;72.50;;;;;;4882197;29;20029;-76
2023/09/27 10:58:50;;;;;;;0.10;0.10;;;20.90;72.30;;;;;;4870663;29;20051;-76
2023/09/27 11:01:23;;;;;;;0.10;0.10;;;21.00;73.10;;;;;;4882245;29;20029;-76
2023/09/27 11:03:59;;;;;;;0.10;0.10;;;21.20;72.90;;;;;;4890568;29;20031;-76
2023/09/27 11:06:25;;;;;;;0.00;0.00;;;21.30;72.30;;;;;;4886333;29;20029;-76
2023/09/27 11:08:50;;;;;;;0.08;0.08;;;21.30;72.10;;;;;;4879529;29;20044;-76
2023/09/27 11:11:16;;;;;;;0.00;0.00;;;21.30;72.00;;;;;;4881478;29;20037;-76
2023/09/27 11:13:42;;;;;;;0.10;0.10;;;21.40;72.00;;;;;;4882336;29;20033;-76
2023/09/27 11:16:14;;;;;;;0.10;0.10;;;21.40;72.00;;;;;;4881121;29;20064;-76
2023/09/27 11:18:51;;;;;;;0.05;0.05;;;21.50;71.90;;;;;;4864761;29;20041;-76
2023/09/27 11:21:17;;;;;;;0.10;0.10;;;21.60;71.50;;;;;;4886479;29;20031;-77
2023/09/27 11:24:12;;;;;;;0.10;0.10;;;21.70;71.20;;;;;;4883452;29;20120;-77
2023/09/27 11:26:43;;;;;;;0.10;0.10;;;21.70;70.70;;;;;;4879768;29;20068;-77
2023/09/27 11:29:08;;;;;;;0.00;0.00;;;21.80;71.20;;;;;;4881061;29;20029;-77
2023/09/27 11:31:38;;;;;;;0.00;0.00;;;21.90;71.10;;;;;;4880924;29;20089;-76
2023/09/27 11:34:17;;;;;;;0.08;0.08;;;21.90;71.30;;;;;;4892544;29;20032;-76
2023/09/27 11:36:53;;;;;;;0.10;0.10;;;21.90;70.40;;;;;;4885676;29;20592;-76
2023/09/27 11:39:52;;;;;;;0.00;0.00;;;22.00;71.10;;;;;;4881750;29;20037;-76
2023/09/27 11:42:22;;;;;;;0.00;0.00;;;22.00;70.00;;;;;;4864658;29;20053;-76
2023/09/27 11:45:08;;;;;;;0.15;0.10;;;21.90;70.20;;;;;;4864402;29;20125;-77
2023/09/27 11:47:47;;;;;;;0.05;0.05;;;21.90;70.80;;;;;;4867358;29;20027;-78
2023/09/27 11:50:15;;;;;;;0.00;0.00;;;21.90;70.50;;;;;;4879855;29;20487;-76
2023/09/27 11:52:44;;;;;;;0.00;0.00;;;22.00;70.90;;;;;;4892069;29;20622;-76
2023/09/27 11:55:10;;;;;;;0.10;0.10;;;22.00;71.30;;;;;;4898562;29;20535;-76
2023/09/27 11:57:36;;;;;;;0.10;0.10;;;22.10;71.80;;;;;;4895007;29;20519;-77
2023/09/27 12:00:05;;;;;;;0.10;0.10;;;22.00;71.30;;;;;;4899780;29;20104;-77
2023/09/27 12:02:33;;;;;;;0.10;0.10;;;22.10;71.20;;;;;;4877990;29;20157;-76
2023/09/27 12:04:59;;;;;;;0.10;0.10;;;22.10;71.40;;;;;;4881613;29;20123;-77
2023/09/27 12:07:27;;;;;;;0.03;0.03;;;22.20;71.10;;;;;;4890450;29;20039;-77
2023/09/27 12:09:55;;;;;;;0.00;0.00;;;22.30;71.00;;;;;;4899492;29;20029;-77
2023/09/27 12:12:23;;;;;;;0.00;0.00;;;22.30;70.80;;;;;;4898044;29;20556;-77
2023/09/27 12:14:49;;;;;;;0.10;0.10;;;22.30;70.30;;;;;;4882358;29;20123;-77
2023/09/27 12:17:18;;;;;;;0.10;0.00;;;22.30;70.50;;;;;;4899613;29;20061;-76
2023/09/27 12:19:45;;;;;;;0.00;0.00;;;22.30;70.50;;;;;;4897238;29;20399;-77
2023/09/27 12:22:15;;;;;;;0.10;0.10;;;22.30;71.20;;;;;;4898169;29;20025;-77
2023/09/27 12:24:41;;;;;;;0.10;0.10;;;22.40;70.40;;;;;;4891634;29;20048;-77
2023/09/27 12:27:07;;;;;;;0.00;0.00;;;22.40;70.10;;;;;;4882063;29;20080;-77
2023/09/27 12:29:33;;;;;;;0.00;0.00;;;22.40;70.40;;;;;;4885104;29;20115;-77
2023/09/27 12:32:00;;;;;;;0.00;0.00;;;22.40;70.30;;;;;;4888970;29;20049;-77
2023/09/27 12:34:26;;;;;;;0.10;0.10;;;22.40;70.20;;;;;;4887683;29;20033;-77
2023/09/27 12:36:51;;;;;;;0.10;0.10;;;22.50;70.70;;;;;;4888456;29;20221;-76
2023/09/27 12:39:17;;;;;;;0.03;0.03;;;22.60;70.40;;;;;;4893019;29;20121;-76
2023/09/27 12:41:43;;;;;;;0.00;0.00;;;22.60;69.90;;;;;;4892698;29;20024;-76
2023/09/27 12:44:09;;;;;;;0.00;0.00;;;22.60;69.50;;;;;;4896922;29;20025;-76
2023/09/27 12:46:34;;;;;;;0.00;0.00;;;22.70;69.80;;;;;;4896025;29;20028;-76
2023/09/27 12:49:00;;;;;;;0.00;0.00;;;22.60;69.50;;;;;;4894034;29;20040;-77
2023/09/27 12:51:26;;;;;;;0.00;0.00;;;22.50;70.50;;;;;;4888868;29;20036;-77
2023/09/27 12:53:53;;;;;;;0.00;0.00;;;22.50;70.50;;;;;;4918257;29;20041;-77
2023/09/27 12:56:18;;;;;;;0.00;0.00;;;22.40;71.00;;;;;;4894528;29;20068;-76
2023/09/27 12:58:44;;;;;;;0.00;0.00;;;22.30;71.00;;;;;;4890038;29;20033;-76
2023/09/27 13:01:17;;;;;;;0.05;0.05;;;22.30;71.40;;;;;;4890524;29;20025;-76
2023/09/27 13:03:43;;;;;;;;;;;22.20;71.70;;;;;;4898171;29;20080;-76
2023/09/27 13:06:12;;;;;;;0.00;0.00;;;22.10;72.20;;;;;;4900442;29;19946;-76
2023/09/27 13:08:37;;;;;;;0.00;0.00;;;22.00;72.00;;;;;;4932684;29;20032;-76
2023/09/27 13:11:07;;;;;;;0.00;0.00;;;22.00;72.40;;;;;;4897570;29;20029;-75
2023/09/27 13:13:33;;;;;;;0.00;0.00;;;21.90;72.70;;;;;;4896201;29;20025;-76
2023/09/27 13:15:59;;;;;;;0.17;0.10;;;21.90;72.90;;;;;;4890631;29;20033;-75
2023/09/27 13:18:27;;;;;;;0.10;0.00;;;21.80;73.30;;;;;;4885266;29;20635;-76
2023/09/27 13:20:53;;;;;;;0.00;0.00;;;21.80;73.10;;;;;;4894161;29;20032;-75
2023/09/27 13:23:19;;;;;;;0.00;0.00;;;21.80;73.50;;;;;;4893127;29;20024;-75
2023/09/27 13:25:54;;;;;;;0.00;0.00;;;21.80;73.40;;;;;;4898247;29;20448;-75
2023/09/27 13:28:23;;;;;;;0.00;0.00;;;21.80;73.80;;;;;;4895739;29;20025;-76
2023/09/27 13:30:50;;;;;;;0.00;0.00;;;21.80;73.60;;;;;;4888798;29;20055;-76
2023/09/27 13:33:17;;;;;;;0.00;0.00;;;21.80;74.10;;;;;;4875913;29;20119;-75
2023/09/27 13:35:42;;;;;;;0.00;0.00;;;21.80;74.30;;;;;;4891725;29;20029;-76
2023/09/27 13:38:10;;;;;;;0.00;0.00;;;21.80;74.50;;;;;;4882889;29;20070;-75
2023/09/27 13:40:37;;;;;;;0.00;0.00;;;21.80;74.80;;;;;;4897716;29;20389;-75
2023/09/27 13:43:03;;;;;;;0.00;0.00;;;21.70;74.70;;;;;;4884205;29;20029;-75
2023/09/27 13:45:29;;;;;;;0.00;0.00;;;21.80;74.70;;;;;;4899470;29;20392;-75
2023/09/27 13:47:54;;;;;;;0.00;0.00;;;21.70;74.90;;;;;;4898416;29;20021;-76
2023/09/27 13:50:20;;;;;;;0.00;0.00;;;21.80;75.00;;;;;;4882649;29;20020;-76
2023/09/27 13:52:46;;;;;;;0.00;0.00;;;21.80;75.00;;;;;;4900548;29;20025;-75
2023/09/27 13:55:12;;;;;;;0.00;0.00;;;21.80;75.00;;;;;;4899163;29;20445;-75
2023/09/27 13:57:39;;;;;;;0.00;0.00;;;21.90;75.20;;;;;;4899201;29;20040;-76
2023/09/27 14:00:07;;;;;;;0.03;0.03;;;22.10;75.10;;;;;;4895510;29;20041;-76
2023/09/27 14:02:37;;;;;;;0.00;0.00;;;22.20;74.60;;;;;;4883360;29;20051;-76
2023/09/27 14:05:06;;;;;;;0.00;0.00;;;22.40;74.30;;;;;;4898689;29;21435;-76
2023/09/27 14:07:32;;;;;;;0.00;0.00;;;22.40;74.00;;;;;;4898961;29;20033;-76
2023/09/27 14:09:58;;;;;;;0.00;0.00;;;22.50;74.30;;;;;;4898008;29;20033;-76
2023/09/27 14:12:24;;;;;;;0.00;0.00;;;22.50;74.50;;;;;;4900840;29;20032;-75
2023/09/27 14:14:50;;;;;;;0.00;0.00;;;22.50;74.60;;;;;;4899543;29;20037;-76
2023/09/27 14:17:17;;;;;;;0.08;0.08;;;22.40;74.80;;;;;;4884084;29;20099;-76
2023/09/27 14:19:43;;;;;;;0.00;0.00;;;22.40;75.20;;;;;;4881078;29;20488;-76
2023/09/27 14:22:08;;;;;;;0.00;0.00;;;22.40;75.20;;;;;;4881805;29;20028;-77
2023/09/27 14:24:34;;;;;;;0.00;0.00;;;22.50;75.30;;;;;;4893514;29;20033;-75
2023/09/27 14:27:01;;;;;;;0.00;0.00;;;22.60;75.10;;;;;;4899392;29;20033;-75
2023/09/27 14:29:28;;;;;;;0.00;0.00;;;22.60;74.90;;;;;;4883506;29;20040;-75
2023/09/27 14:31:54;;;;;;;0.00;0.00;;;22.70;75.00;;;;;;4899920;29;20052;-75
2023/09/27 14:34:20;;;;;;;0.00;0.00;;;22.70;75.20;;;;;;4899285;29;20044;-76
2023/09/27 14:36:46;;;;;;;0.00;0.00;;;22.60;75.50;;;;;;4900999;29;20028;-76
2023/09/27 14:39:13;;;;;;;0.10;0.10;;;22.60;75.50;;;;;;4900611;29;20088;-76
2023/09/27 14:41:42;;;;;;;0.00;0.00;;;22.60;75.80;;;;;;4899815;29;20027;-76
2023/09/27 14:44:08;;;;;;;0.00;0.00;;;22.60;76.00;;;;;;4900398;29;20492;-76
2023/09/27 14:46:34;;;;;;;0.00;0.00;;;22.60;75.70;;;;;;4881654;29;20077;-76
2023/09/27 14:49:00;;;;;;;0.00;0.00;;;22.60;75.40;;;;;;4898614;29;20070;-75
2023/09/27 14:51:26;;;;;;;0.00;0.00;;;22.60;75.40;;;;;;4882822;29;20028;-75
2023/09/27 14:53:52;;;;;;;0.00;0.00;;;22.50;75.60;;;;;;4883760;29;20032;-75
2023/09/27 14:56:18;;;;;;;0.00;0.00;;;22.30;76.00;;;;;;4901151;29;20029;-75
2023/09/27 14:58:44;;;;;;;0.00;0.00;;;22.30;76.10;;;;;;4897572;29;20159;-75
2023/09/27 15:01:10;;;;;;;0.00;0.00;;;22.30;76.40;;;;;;4900754;29;20027;-75
2023/09/27 15:03:36;;;;;;;0.00;0.00;;;22.30;76.70;;;;;;4879820;29;20020;-75
2023/09/27 15:06:04;;;;;;;0.00;0.00;;;22.20;76.30;;;;;;4898390;29;20021;-75
2023/09/27 15:08:30;;;;;;;0.00;0.00;;;22.20;76.40;;;;;;4897763;29;20029;-76
2023/09/27 15:10:56;;;;;;;0.00;0.00;;;22.20;76.60;;;;;;4882394;29;20037;-75
2023/09/27 15:13:21;;;;;;;0.00;0.00;;;22.20;76.80;;;;;;4898167;29;20532;-76
2023/09/27 15:15:50;;;;;;;0.00;0.00;;;22.30;76.80;;;;;;4878788;29;20032;-75
2023/09/27 15:18:16;;;;;;;0.00;0.00;;;22.30;77.00;;;;;;4898199;29;20036;-76
2023/09/27 15:20:42;;;;;;;0.00;0.00;;;22.30;76.70;;;;;;4880599;29;20100;-75
2023/09/27 15:23:08;;;;;;;0.00;0.00;;;22.30;76.50;;;;;;4899370;29;20183;-75
2023/09/27 15:25:34;;;;;;;0.00;0.00;;;22.40;76.60;;;;;;4880933;29;20109;-76
2023/09/27 15:28:00;;;;;;;0.00;0.00;;;22.50;76.60;;;;;;4881004;29;20029;-75
2023/09/27 15:30:26;;;;;;;0.10;0.10;;;22.50;76.20;;;;;;4896075;29;20029;-75
2023/09/27 15:32:52;;;;;;;0.05;0.05;;;22.60;76.20;;;;;;4874824;29;20045;-77
2023/09/27 15:35:18;;;;;;;0.10;0.10;;;22.70;75.90;;;;;;4890529;29;20510;-76
2023/09/27 15:37:55;;;;;;;0.00;0.00;;;22.90;75.50;;;;;;4878256;29;20068;-76
2023/09/27 15:40:21;;;;;;;0.00;0.00;;;22.90;75.50;;;;;;4898917;29;20013;-75
2023/09/27 15:42:54;;;;;;;0.10;0.10;;;22.80;75.40;;;;;;4899193;29;20461;-75
2023/09/27 15:45:21;;;;;;;0.10;0.10;;;22.70;75.40;;;;;;4897719;29;20047;-75
2023/09/27 15:47:48;;;;;;;0.10;0.10;;;22.70;75.40;;;;;;4897884;29;20033;-75
2023/09/27 15:50:13;;;;;;;0.00;0.00;;;22.60;75.70;;;;;;4898807;29;20021;-75
2023/09/27 15:52:39;;;;;;;0.00;0.00;;;22.60;75.80;;;;;;4897870;29;20029;-75
2023/09/27 15:55:08;;;;;;;0.00;0.00;;;22.50;75.80;;;;;;4899568;29;20029;-75
2023/09/27 15:57:33;;;;;;;0.00;0.00;;;22.30;75.70;;;;;;4897804;29;20036;-75
2023/09/27 15:59:59;;;;;;;0.00;0.00;;;22.30;75.90;;;;;;4889977;29;20033;-76
2023/09/27 16:02:24;;;;;;;0.00;0.00;;;22.30;75.90;;;;;;4884987;29;20024;-76
2023/09/27 16:04:50;;;;;;;0.00;0.00;;;22.30;75.80;;;;;;4900266;29;20053;-75
2023/09/27 16:07:16;;;;;;;0.10;0.10;;;22.30;75.50;;;;;;4879071;29;20217;-75
2023/09/27 16:09:41;;;;;;;0.00;0.00;;;22.30;74.90;;;;;;4895313;29;20095;-76
2023/09/27 16:12:07;;;;;;;0.00;0.00;;;22.30;74.60;;;;;;4899895;29;20045;-75
2023/09/27 16:14:33;;;;;;;0.00;0.00;;;22.20;74.80;;;;;;4899673;29;20107;-75
2023/09/27 16:16:59;;;;;;;0.00;0.00;;;22.10;75.00;;;;;;4876577;29;20434;-75
2023/09/27 16:19:25;;;;;;;0.08;0.08;;;22.10;75.00;;;;;;4900416;29;20021;-75
2023/09/27 16:21:51;;;;;;;0.00;0.00;;;22.20;75.20;;;;;;4893999;29;20029;-75
2023/09/27 16:24:17;;;;;;;0.00;0.00;;;22.20;75.50;;;;;;4877944;29;20115;-75
2023/09/27 16:26:43;;;;;;;0.00;0.00;;;22.20;75.50;;;;;;4898644;29;20032;-77
2023/09/27 16:29:09;;;;;;;0.00;0.00;;;22.10;75.70;;;;;;4886077;29;20036;-85
2023/09/27 16:31:38;;;;;;;0.00;0.00;;;22.10;75.50;;;;;;4881548;29;20477;-78
2023/09/27 16:34:03;;;;;;;0.00;0.00;;;22.00;75.80;;;;;;4900193;29;20043;-75
2023/09/27 16:36:29;;;;;;;0.00;0.00;;;21.90;75.80;;;;;;4897850;29;20028;-76
2023/09/27 16:38:56;;;;;;;0.08;0.08;;;21.90;76.10;;;;;;4899447;29;20036;-75
2023/09/27 16:41:22;;;;;;;0.00;0.00;;;21.80;76.30;;;;;;4895670;29;20032;-75
2023/09/27 16:43:48;;;;;;;0.00;0.00;;;21.80;76.40;;;;;;4898635;29;20631;-75
2023/09/27 16:46:13;;;;;;;0.00;0.00;;;21.80;76.30;;;;;;4900685;29;20032;-75
2023/09/27 16:48:39;;;;;;;0.00;0.00;;;21.70;76.30;;;;;;4896706;29;20111;-75
2023/09/27 16:51:06;;;;;;;0.10;0.10;;;21.70;76.60;;;;;;4898051;29;20519;-76
2023/09/27 16:53:33;;;;;;;0.00;0.00;;;21.70;76.70;;;;;;4900341;29;20032;-75
2023/09/27 16:55:59;;;;;;;0.00;0.00;;;21.60;76.60;;;;;;4898381;29;20036;-75
2023/09/27 16:58:27;;;;;;;0.00;0.00;;;21.60;76.50;;;;;;4900874;29;20039;-74
2023/09/27 17:00:55;;;;;;;0.00;0.00;;;21.50;76.60;;;;;;4892186;29;20063;-74
2023/09/27 17:03:21;;;;;;;0.00;0.00;;;21.50;76.50;;;;;;4897723;29;20033;-75
2023/09/27 17:05:49;;;;;;;0.00;0.00;;;21.50;76.70;;;;;;4900641;29;20444;-75
2023/09/27 17:08:15;;;;;;;0.00;0.00;;;21.50;76.90;;;;;;4899615;29;20024;-74
2023/09/27 17:10:41;;;;;;;0.00;0.00;;;21.60;76.80;;;;;;4900910;29;20061;-74
2023/09/27 17:13:08;;;;;;;0.00;0.00;;;21.60;76.40;;;;;;4899832;29;20152;-74
2023/09/27 17:15:33;;;;;;;0.00;0.00;;;21.70;75.70;;;;;;4897977;29;20064;-74
2023/09/27 17:17:59;;;;;;;0.10;0.10;;;21.70;75.30;;;;;;4900725;29;20088;-74
2023/09/27 17:20:25;;;;;;;0.00;0.00;;;21.70;75.20;;;;;;4897487;29;20043;-75
2023/09/27 17:22:51;;;;;;;0.10;0.10;;;21.60;74.00;;;;;;4900760;29;20499;-75